sensor_id;sensor_type;location;lat;lon;timestamp;pressure;altitude;pressure_sealevel;temperature;humidity
45255;BME280;30989;52.078;21.014;2023-01-25T00:01:50;164003.56;;;0.97;100.00
45255;BME280;30989;52.078;21.014;2023-01-25T00:04:18;163999.56;;;0.95;100.00
45255;BME280;30989;52.078;21.014;2023-01-25T00:06:44;163999.56;;;0.95;100.00
45255;BME280;30989;52.078;21.014;2023-01-25T00:09:09;163995.56;;;0.94;100.00
45255;BME280;30989;52.078;21.014;2023-01-25T00:11:35;163995.56;;;0.94;100.00
45255;BME280;30989;52.078;21.014;2023-01-25T00:14:02;163974.28;;;0.86;100.00
45255;BME280;30989;52.078;21.014;2023-01-25T00:16:28;163992.91;;;0.93;100.00
45255;BME280;30989;52.078;21.014;2023-01-25T00:18:53;163958.31;;;0.80;100.00
45255;BME280;30989;52.078;21.014;2023-01-25T00:21:21;163956.97;;;0.79;100.00
45255;BME280;30989;52.078;21.014;2023-01-25T00:23:47;163972.94;;;0.85;100.00
45255;BME280;30989;52.078;21.014;2023-01-25T00:26:12;163951.66;;;0.77;100.00
45255;BME280;30989;52.078;21.014;2023-01-25T00:28:38;163956.97;;;0.79;100.00
45255;BME280;30989;52.078;21.014;2023-01-25T00:31:05;163941.03;;;0.73;100.00
45255;BME280;30989;52.078;21.014;2023-01-25T00:38:47;163938.34;;;0.72;100.00
45255;BME280;30989;52.078;21.014;2023-01-25T00:41:12;163921.06;;;0.66;100.00
45255;BME280;30989;52.078;21.014;2023-01-25T00:43:38;163925.06;;;0.67;100.00
45255;BME280;30989;52.078;21.014;2023-01-25T00:46:04;163917.06;;;0.64;100.00
45255;BME280;30989;52.078;21.014;2023-01-25T00:48:29;163925.06;;;0.67;100.00
45255;BME280;30989;52.078;21.014;2023-01-25T00:51:02;163917.06;;;0.64;100.00
45255;BME280;30989;52.078;21.014;2023-01-25T00:53:28;163919.72;;;0.65;100.00
45255;BME280;30989;52.078;21.014;2023-01-25T00:55:53;163899.78;;;0.57;100.00
45255;BME280;30989;52.078;21.014;2023-01-25T00:58:19;163931.72;;;0.70;100.00
45255;BME280;30989;52.078;21.014;2023-01-25T01:00:45;163903.78;;;0.59;100.00
45255;BME280;30989;52.078;21.014;2023-01-25T01:03:10;163893.13;;;0.55;100.00
45255;BME280;30989;52.078;21.014;2023-01-25T01:05:35;163906.44;;;0.60;100.00
45255;BME280;30989;52.078;21.014;2023-01-25T01:08:02;163887.81;;;0.53;100.00
45255;BME280;30989;52.078;21.014;2023-01-25T01:10:28;163901.09;;;0.58;100.00
45255;BME280;30989;52.078;21.014;2023-01-25T01:12:54;163902.44;;;0.58;100.00
45255;BME280;30989;52.078;21.014;2023-01-25T01:15:19;163897.13;;;0.56;100.00
45255;BME280;30989;52.078;21.014;2023-01-25T01:17:45;163902.44;;;0.58;100.00
45255;BME280;30989;52.078;21.014;2023-01-25T01:20:11;163893.13;;;0.55;100.00
45255;BME280;30989;52.078;21.014;2023-01-25T01:22:36;163887.81;;;0.53;100.00
45255;BME280;30989;52.078;21.014;2023-01-25T01:25:02;163854.56;;;0.40;100.00
45255;BME280;30989;52.078;21.014;2023-01-25T01:27:28;163879.84;;;0.50;100.00
45255;BME280;30989;52.078;21.014;2023-01-25T01:29:53;163874.50;;;0.48;100.00
45255;BME280;30989;52.078;21.014;2023-01-25T01:32:18;163882.50;;;0.51;100.00
45255;BME280;30989;52.078;21.014;2023-01-25T01:34:44;163879.84;;;0.50;100.00
45255;BME280;30989;52.078;21.014;2023-01-25T01:37:10;163871.84;;;0.47;100.00
45255;BME280;30989;52.078;21.014;2023-01-25T01:39:35;163870.53;;;0.46;100.00
45255;BME280;30989;52.078;21.014;2023-01-25T01:42:01;163862.53;;;0.43;100.00
45255;BME280;30989;52.078;21.014;2023-01-25T01:44:46;163869.19;;;0.46;100.00
45255;BME280;30989;52.078;21.014;2023-01-25T01:47:21;163842.59;;;0.36;100.00
45255;BME280;30989;52.078;21.014;2023-01-25T01:49:56;163830.63;;;0.31;100.00
45255;BME280;30989;52.078;21.014;2023-01-25T01:52:36;163837.25;;;0.34;100.00
45255;BME280;30989;52.078;21.014;2023-01-25T01:55:12;163814.66;;;0.25;100.00
45255;BME280;30989;52.078;21.014;2023-01-25T01:57:46;163821.31;;;0.27;100.00
45255;BME280;30989;52.078;21.014;2023-01-25T02:00:16;163800.03;;;0.19;100.00
45255;BME280;30989;52.078;21.014;2023-01-25T02:02:45;163806.69;;;0.22;100.00
45255;BME280;30989;52.078;21.014;2023-01-25T02:05:34;163805.34;;;0.21;100.00
45255;BME280;30989;52.078;21.014;2023-01-25T02:08:07;163797.38;;;0.18;100.00
45255;BME280;30989;52.078;21.014;2023-01-25T02:10:35;163782.75;;;0.13;100.00
45255;BME280;30989;52.078;21.014;2023-01-25T02:13:01;163797.38;;;0.18;100.00
45255;BME280;30989;52.078;21.014;2023-01-25T02:15:36;163793.38;;;0.17;100.00
45255;BME280;30989;52.078;21.014;2023-01-25T02:18:02;163781.41;;;0.12;100.00
45255;BME280;30989;52.078;21.014;2023-01-25T02:20:35;163782.75;;;0.13;100.00
45255;BME280;30989;52.078;21.014;2023-01-25T02:23:25;163785.41;;;0.14;100.00
45255;BME280;30989;52.078;21.014;2023-01-25T02:25:54;163777.41;;;0.11;100.00
45255;BME280;30989;52.078;21.014;2023-01-25T02:30:58;163765.47;;;0.06;100.00
45255;BME280;30989;52.078;21.014;2023-01-25T02:33:25;163772.09;;;0.09;100.00
45255;BME280;30989;52.078;21.014;2023-01-25T02:36:15;163749.50;;;0.00;100.00
45255;BME280;30989;52.078;21.014;2023-01-25T02:38:47;163754.81;;;0.02;100.00
45255;BME280;30989;52.078;21.014;2023-01-25T02:41:43;163750.81;;;0.01;100.00
45255;BME280;30989;52.078;21.014;2023-01-25T02:44:24;163752.16;;;0.01;100.00
45255;BME280;30989;52.078;21.014;2023-01-25T02:46:50;163744.13;;;-0.02;100.00
45255;BME280;30989;52.078;21.014;2023-01-25T02:49:17;163752.16;;;0.01;100.00
45255;BME280;30989;52.078;21.014;2023-01-25T02:51:48;163749.50;;;0.00;100.00
45255;BME280;30989;52.078;21.014;2023-01-25T02:54:17;163730.84;;;-0.07;100.00
45255;BME280;30989;52.078;21.014;2023-01-25T02:56:43;163736.16;;;-0.05;100.00
45255;BME280;30989;52.078;21.014;2023-01-25T02:59:10;163741.47;;;-0.03;100.00
45255;BME280;30989;52.078;21.014;2023-01-25T03:01:39;163733.50;;;-0.06;100.00
45255;BME280;30989;52.078;21.014;2023-01-25T03:04:06;163709.56;;;-0.15;100.00
45255;BME280;30989;52.078;21.014;2023-01-25T03:06:32;163716.22;;;-0.13;100.00
45255;BME280;30989;52.078;21.014;2023-01-25T03:08:58;163706.91;;;-0.16;100.00
45255;BME280;30989;52.078;21.014;2023-01-25T03:11:25;163696.25;;;-0.20;100.00
45255;BME280;30989;52.078;21.014;2023-01-25T03:13:50;163696.25;;;-0.20;100.00
45255;BME280;30989;52.078;21.014;2023-01-25T03:16:17;163701.59;;;-0.18;100.00
45255;BME280;30989;52.078;21.014;2023-01-25T03:18:43;163693.59;;;-0.21;100.00
45255;BME280;30989;52.078;21.014;2023-01-25T03:21:14;163673.66;;;-0.29;100.00
45255;BME280;30989;52.078;21.014;2023-01-25T03:23:40;163665.69;;;-0.32;100.00
45255;BME280;30989;52.078;21.014;2023-01-25T03:26:14;163648.41;;;-0.39;100.00
45255;BME280;30989;52.078;21.014;2023-01-25T03:28:56;163664.38;;;-0.33;100.00
45255;BME280;30989;52.078;21.014;2023-01-25T03:31:22;163635.13;;;-0.44;100.00
45255;BME280;30989;52.078;21.014;2023-01-25T03:33:47;163651.06;;;-0.38;100.00
45255;BME280;30989;52.078;21.014;2023-01-25T03:36:14;163643.09;;;-0.41;100.00
45255;BME280;30989;52.078;21.014;2023-01-25T03:38:40;163664.38;;;-0.33;100.00
45255;BME280;30989;52.078;21.014;2023-01-25T03:41:07;163667.03;;;-0.32;100.00
45255;BME280;30989;52.078;21.014;2023-01-25T03:43:33;163653.72;;;-0.37;100.00
45255;BME280;30989;52.078;21.014;2023-01-25T03:46:00;163637.78;;;-0.43;100.00
45255;BME280;30989;52.078;21.014;2023-01-25T03:48:28;163617.84;;;-0.50;100.00
45255;BME280;30989;52.078;21.014;2023-01-25T03:50:56;163628.47;;;-0.46;100.00
45255;BME280;30989;52.078;21.014;2023-01-25T03:53:26;163608.53;;;-0.54;100.00
45255;BME280;30989;52.078;21.014;2023-01-25T03:56:04;163608.53;;;-0.54;100.00
45255;BME280;30989;52.078;21.014;2023-01-25T03:58:33;163608.53;;;-0.54;100.00
45255;BME280;30989;52.078;21.014;2023-01-25T04:00:59;163600.56;;;-0.57;100.00
45255;BME280;30989;52.078;21.014;2023-01-25T04:03:26;163592.59;;;-0.60;100.00
45255;BME280;30989;52.078;21.014;2023-01-25T04:05:53;163579.28;;;-0.65;100.00
45255;BME280;30989;52.078;21.014;2023-01-25T04:08:19;163592.59;;;-0.60;100.00
45255;BME280;30989;52.078;21.014;2023-01-25T04:10:50;163599.22;;;-0.57;100.00
45255;BME280;30989;52.078;21.014;2023-01-25T04:13:16;163608.53;;;-0.54;100.00
45255;BME280;30989;52.078;21.014;2023-01-25T04:15:42;163607.22;;;-0.54;100.00
45255;BME280;30989;52.078;21.014;2023-01-25T04:18:16;163607.22;;;-0.54;100.00
45255;BME280;30989;52.078;21.014;2023-01-25T04:20:42;163580.63;;;-0.65;100.00
45255;BME280;30989;52.078;21.014;2023-01-25T04:23:09;163605.88;;;-0.55;100.00
45255;BME280;30989;52.078;21.014;2023-01-25T04:25:37;163597.91;;;-0.58;100.00
45255;BME280;30989;52.078;21.014;2023-01-25T04:28:08;163600.56;;;-0.57;100.00
45255;BME280;30989;52.078;21.014;2023-01-25T04:30:34;163604.56;;;-0.55;100.00
45255;BME280;30989;52.078;21.014;2023-01-25T04:33:04;163615.19;;;-0.51;100.00
45255;BME280;30989;52.078;21.014;2023-01-25T04:35:33;163599.22;;;-0.57;100.00
45255;BME280;30989;52.078;21.014;2023-01-25T04:38:00;163588.59;;;-0.61;100.00
45255;BME280;30989;52.078;21.014;2023-01-25T04:40:34;163584.63;;;-0.63;100.00
45255;BME280;30989;52.078;21.014;2023-01-25T04:42:59;163584.63;;;-0.63;100.00
45255;BME280;30989;52.078;21.014;2023-01-25T04:45:25;163581.97;;;-0.64;100.00
45255;BME280;30989;52.078;21.014;2023-01-25T04:47:59;163580.63;;;-0.65;100.00
45255;BME280;30989;52.078;21.014;2023-01-25T04:50:26;163575.31;;;-0.67;100.00
45255;BME280;30989;52.078;21.014;2023-01-25T04:52:52;163570.00;;;-0.69;100.00
45255;BME280;30989;52.078;21.014;2023-01-25T04:55:18;163573.97;;;-0.67;100.00
45255;BME280;30989;52.078;21.014;2023-01-25T04:57:44;163579.28;;;-0.65;100.00
45255;BME280;30989;52.078;21.014;2023-01-25T05:00:11;163583.28;;;-0.63;100.00
45255;BME280;30989;52.078;21.014;2023-01-25T05:02:37;163577.97;;;-0.66;100.00
45255;BME280;30989;52.078;21.014;2023-01-25T05:05:05;163552.72;;;-0.75;100.00
45255;BME280;30989;52.078;21.014;2023-01-25T05:07:30;163552.72;;;-0.75;100.00
45255;BME280;30989;52.078;21.014;2023-01-25T05:09:56;163547.41;;;-0.77;100.00
45255;BME280;30989;52.078;21.014;2023-01-25T05:12:23;163566.00;;;-0.70;100.00
45255;BME280;30989;52.078;21.014;2023-01-25T05:14:59;163560.69;;;-0.72;100.00
45255;BME280;30989;52.078;21.014;2023-01-25T05:17:24;163558.03;;;-0.73;100.00
45255;BME280;30989;52.078;21.014;2023-01-25T05:19:53;163552.72;;;-0.75;100.00
45255;BME280;30989;52.078;21.014;2023-01-25T05:22:21;163544.75;;;-0.78;100.00
45255;BME280;30989;52.078;21.014;2023-01-25T05:24:50;163555.38;;;-0.74;100.00
45255;BME280;30989;52.078;21.014;2023-01-25T05:27:17;163560.69;;;-0.72;100.00
45255;BME280;30989;52.078;21.014;2023-01-25T05:29:52;163558.03;;;-0.73;100.00
45255;BME280;30989;52.078;21.014;2023-01-25T05:32:22;163556.69;;;-0.74;100.00
45255;BME280;30989;52.078;21.014;2023-01-25T05:34:48;163546.06;;;-0.78;100.00
45255;BME280;30989;52.078;21.014;2023-01-25T05:37:17;163542.09;;;-0.79;100.00
45255;BME280;30989;52.078;21.014;2023-01-25T05:39:44;163527.47;;;-0.85;100.00
45255;BME280;30989;52.078;21.014;2023-01-25T05:42:15;163539.44;;;-0.80;100.00
45255;BME280;30989;52.078;21.014;2023-01-25T05:44:42;163542.09;;;-0.79;100.00
45255;BME280;30989;52.078;21.014;2023-01-25T05:47:12;163535.44;;;-0.82;100.00
45255;BME280;30989;52.078;21.014;2023-01-25T05:49:39;163531.47;;;-0.83;100.00
45255;BME280;30989;52.078;21.014;2023-01-25T05:52:05;163511.53;;;-0.91;100.00
45255;BME280;30989;52.078;21.014;2023-01-25T05:54:32;163520.81;;;-0.87;100.00
45255;BME280;30989;52.078;21.014;2023-01-25T05:57:03;163514.19;;;-0.90;100.00
45255;BME280;30989;52.078;21.014;2023-01-25T05:59:29;163510.19;;;-0.91;100.00
45255;BME280;30989;52.078;21.014;2023-01-25T06:01:55;163495.56;;;-0.97;100.00
45255;BME280;30989;52.078;21.014;2023-01-25T06:04:21;163487.59;;;-1.00;100.00
45255;BME280;30989;52.078;21.014;2023-01-25T06:06:47;163482.28;;;-1.02;100.00
45255;BME280;30989;52.078;21.014;2023-01-25T06:09:13;163474.31;;;-1.05;100.00
45255;BME280;30989;52.078;21.014;2023-01-25T06:11:42;163491.59;;;-0.99;100.00
45255;BME280;30989;52.078;21.014;2023-01-25T06:14:09;163470.34;;;-1.07;100.00
45255;BME280;30989;52.078;21.014;2023-01-25T06:16:34;163473.00;;;-1.06;100.00
45255;BME280;30989;52.078;21.014;2023-01-25T06:19:18;163470.34;;;-1.07;100.00
45255;BME280;30989;52.078;21.014;2023-01-25T06:22:04;163467.69;;;-1.08;100.00
45255;BME280;30989;52.078;21.014;2023-01-25T06:24:35;163465.03;;;-1.09;100.00
45255;BME280;30989;52.078;21.014;2023-01-25T06:27:00;163466.34;;;-1.08;100.00
45255;BME280;30989;52.078;21.014;2023-01-25T06:29:26;163451.75;;;-1.14;100.00
45255;BME280;30989;52.078;21.014;2023-01-25T06:31:51;163457.06;;;-1.12;100.00
45255;BME280;30989;52.078;21.014;2023-01-25T06:34:17;163446.41;;;-1.16;100.00
45255;BME280;30989;52.078;21.014;2023-01-25T06:36:42;163449.09;;;-1.15;100.00
45255;BME280;30989;52.078;21.014;2023-01-25T06:39:08;163461.03;;;-1.10;100.00
45255;BME280;30989;52.078;21.014;2023-01-25T06:41:33;163462.38;;;-1.10;100.00
45255;BME280;30989;52.078;21.014;2023-01-25T06:43:59;163449.09;;;-1.15;100.00
45255;BME280;30989;52.078;21.014;2023-01-25T06:46:24;163437.13;;;-1.19;100.00
45255;BME280;30989;52.078;21.014;2023-01-25T06:48:49;163435.78;;;-1.20;100.00
45255;BME280;30989;52.078;21.014;2023-01-25T06:51:15;163445.09;;;-1.16;100.00
45255;BME280;30989;52.078;21.014;2023-01-25T06:53:43;163451.75;;;-1.14;100.00
45255;BME280;30989;52.078;21.014;2023-01-25T06:56:14;163438.44;;;-1.19;100.00
45255;BME280;30989;52.078;21.014;2023-01-25T06:58:40;163453.06;;;-1.13;100.00
45255;BME280;30989;52.078;21.014;2023-01-25T07:01:17;163430.47;;;-1.22;100.00
45255;BME280;30989;52.078;21.014;2023-01-25T07:03:50;163454.38;;;-1.13;100.00
45255;BME280;30989;52.078;21.014;2023-01-25T07:06:17;163443.75;;;-1.17;100.00
45255;BME280;30989;52.078;21.014;2023-01-25T07:08:42;163449.09;;;-1.15;100.00
45255;BME280;30989;52.078;21.014;2023-01-25T07:11:09;163434.47;;;-1.20;100.00
45255;BME280;30989;52.078;21.014;2023-01-25T07:13:39;163451.75;;;-1.14;100.00
45255;BME280;30989;52.078;21.014;2023-01-25T07:16:06;163442.44;;;-1.17;100.00
45255;BME280;30989;52.078;21.014;2023-01-25T07:18:33;163435.78;;;-1.20;100.00
45255;BME280;30989;52.078;21.014;2023-01-25T07:21:18;163443.75;;;-1.17;100.00
45255;BME280;30989;52.078;21.014;2023-01-25T07:23:46;163419.84;;;-1.26;100.00
45255;BME280;30989;52.078;21.014;2023-01-25T07:28:45;163417.19;;;-1.27;100.00
45255;BME280;30989;52.078;21.014;2023-01-25T07:31:11;163406.56;;;-1.31;100.00
45255;BME280;30989;52.078;21.014;2023-01-25T07:33:36;163410.56;;;-1.30;100.00
45255;BME280;30989;52.078;21.014;2023-01-25T07:36:03;163403.91;;;-1.32;100.00
45255;BME280;30989;52.078;21.014;2023-01-25T07:38:29;163399.94;;;-1.34;100.00
45255;BME280;30989;52.078;21.014;2023-01-25T07:40:54;163395.94;;;-1.35;100.00
45255;BME280;30989;52.078;21.014;2023-01-25T07:43:20;163386.66;;;-1.39;100.00
45255;BME280;30989;52.078;21.014;2023-01-25T07:45:46;163376.03;;;-1.43;100.00
45255;BME280;30989;52.078;21.014;2023-01-25T07:48:15;163377.34;;;-1.42;100.00
45255;BME280;30989;52.078;21.014;2023-01-25T07:50:41;163389.31;;;-1.38;100.00
45255;BME280;30989;52.078;21.014;2023-01-25T07:53:07;163394.63;;;-1.36;100.00
45255;BME280;30989;52.078;21.014;2023-01-25T07:55:33;163394.63;;;-1.36;100.00
45255;BME280;30989;52.078;21.014;2023-01-25T07:57:58;163395.94;;;-1.35;100.00
45255;BME280;30989;52.078;21.014;2023-01-25T08:00:25;163382.66;;;-1.40;100.00
45255;BME280;30989;52.078;21.014;2023-01-25T08:02:51;163395.94;;;-1.35;100.00
45255;BME280;30989;52.078;21.014;2023-01-25T08:05:17;163384.00;;;-1.40;100.00
45255;BME280;30989;52.078;21.014;2023-01-25T08:07:44;163403.91;;;-1.32;100.00
45255;BME280;30989;52.078;21.014;2023-01-25T08:10:10;163385.31;;;-1.39;100.00
45255;BME280;30989;52.078;21.014;2023-01-25T08:12:35;163389.31;;;-1.38;100.00
45255;BME280;30989;52.078;21.014;2023-01-25T08:15:02;163403.91;;;-1.32;100.00
45255;BME280;30989;52.078;21.014;2023-01-25T08:17:28;163407.91;;;-1.31;100.00
45255;BME280;30989;52.078;21.014;2023-01-25T08:20:00;163425.16;;;-1.24;100.00
45255;BME280;30989;52.078;21.014;2023-01-25T08:22:26;163398.59;;;-1.34;100.00
45255;BME280;30989;52.078;21.014;2023-01-25T08:24:53;163399.94;;;-1.34;100.00
45255;BME280;30989;52.078;21.014;2023-01-25T08:27:19;163403.91;;;-1.32;100.00
45255;BME280;30989;52.078;21.014;2023-01-25T08:29:45;163398.59;;;-1.34;100.00
45255;BME280;30989;52.078;21.014;2023-01-25T08:32:11;163376.03;;;-1.43;100.00
45255;BME280;30989;52.078;21.014;2023-01-25T08:34:36;163384.00;;;-1.40;100.00
45255;BME280;30989;52.078;21.014;2023-01-25T08:37:05;163395.94;;;-1.35;100.00
45255;BME280;30989;52.078;21.014;2023-01-25T08:39:30;163387.97;;;-1.38;100.00
45255;BME280;30989;52.078;21.014;2023-01-25T08:41:55;163350.78;;;-1.52;100.00
45255;BME280;30989;52.078;21.014;2023-01-25T08:44:21;163380.00;;;-1.41;100.00
45255;BME280;30989;52.078;21.014;2023-01-25T08:46:49;163386.66;;;-1.39;100.00
45255;BME280;30989;52.078;21.014;2023-01-25T08:49:14;163393.28;;;-1.36;100.00
45255;BME280;30989;52.078;21.014;2023-01-25T08:51:40;163401.25;;;-1.33;100.00
45255;BME280;30989;52.078;21.014;2023-01-25T08:54:08;163417.19;;;-1.27;100.00
45255;BME280;30989;52.078;21.014;2023-01-25T08:56:38;163430.47;;;-1.22;100.00
45255;BME280;30989;52.078;21.014;2023-01-25T08:59:05;163449.09;;;-1.15;100.00
45255;BME280;30989;52.078;21.014;2023-01-25T09:01:31;163459.72;;;-1.11;100.00
45255;BME280;30989;52.078;21.014;2023-01-25T09:03:56;163486.28;;;-1.01;100.00
45255;BME280;30989;52.078;21.014;2023-01-25T09:06:22;163487.59;;;-1.00;100.00
45255;BME280;30989;52.078;21.014;2023-01-25T09:08:48;163498.25;;;-0.96;100.00
45255;BME280;30989;52.078;21.014;2023-01-25T09:11:19;163507.53;;;-0.92;100.00
45255;BME280;30989;52.078;21.014;2023-01-25T09:13:45;163496.91;;;-0.97;100.00
45255;BME280;30989;52.078;21.014;2023-01-25T09:16:13;163510.19;;;-0.91;100.00
45255;BME280;30989;52.078;21.014;2023-01-25T09:18:41;163499.56;;;-0.95;100.00
45255;BME280;30989;52.078;21.014;2023-01-25T09:21:09;163484.94;;;-1.01;100.00
45255;BME280;30989;52.078;21.014;2023-01-25T09:23:35;163502.22;;;-0.94;100.00
45255;BME280;30989;52.078;21.014;2023-01-25T09:26:02;163479.63;;;-1.03;100.00
45255;BME280;30989;52.078;21.014;2023-01-25T09:28:29;163483.63;;;-1.02;100.00
45255;BME280;30989;52.078;21.014;2023-01-25T09:30:59;163478.31;;;-1.04;100.00
45255;BME280;30989;52.078;21.014;2023-01-25T09:34:04;163474.31;;;-1.05;100.00
45255;BME280;30989;52.078;21.014;2023-01-25T09:36:29;163457.06;;;-1.12;100.00
45255;BME280;30989;52.078;21.014;2023-01-25T09:38:55;163437.13;;;-1.19;100.00
45255;BME280;30989;52.078;21.014;2023-01-25T09:47:29;163465.03;;;-1.09;100.00
45255;BME280;30989;52.078;21.014;2023-01-25T09:53:05;163473.00;;;-1.06;100.00
45255;BME280;30989;52.078;21.014;2023-01-25T09:55:35;163463.69;;;-1.09;100.00
45255;BME280;30989;52.078;21.014;2023-01-25T09:58:01;163486.28;;;-1.01;100.00
45255;BME280;30989;52.078;21.014;2023-01-25T10:00:41;163504.88;;;-0.93;100.00
45255;BME280;30989;52.078;21.014;2023-01-25T10:03:26;163496.91;;;-0.97;100.00
45255;BME280;30989;52.078;21.014;2023-01-25T10:06:02;163502.22;;;-0.94;100.00
45255;BME280;30989;52.078;21.014;2023-01-25T10:08:35;163510.19;;;-0.91;100.00
45255;BME280;30989;52.078;21.014;2023-01-25T10:11:22;163502.22;;;-0.94;100.00
45255;BME280;30989;52.078;21.014;2023-01-25T10:13:49;163512.84;;;-0.90;100.00
45255;BME280;30989;52.078;21.014;2023-01-25T10:16:25;163500.91;;;-0.95;100.00
45255;BME280;30989;52.078;21.014;2023-01-25T10:21:36;163519.50;;;-0.88;100.00
45255;BME280;30989;52.078;21.014;2023-01-25T10:24:22;163522.16;;;-0.87;100.00
45255;BME280;30989;52.078;21.014;2023-01-25T10:26:57;163506.22;;;-0.93;100.00
45255;BME280;30989;52.078;21.014;2023-01-25T10:29:30;163522.16;;;-0.87;100.00
45255;BME280;30989;52.078;21.014;2023-01-25T10:34:48;163495.56;;;-0.97;100.00
45255;BME280;30989;52.078;21.014;2023-01-25T10:37:20;163491.59;;;-0.99;100.00
45255;BME280;30989;52.078;21.014;2023-01-25T10:40:05;163480.97;;;-1.03;100.00
45255;BME280;30989;52.078;21.014;2023-01-25T10:42:46;163504.88;;;-0.93;100.00
45255;BME280;30989;52.078;21.014;2023-01-25T10:45:16;163504.88;;;-0.93;100.00
45255;BME280;30989;52.078;21.014;2023-01-25T10:47:48;163510.19;;;-0.91;100.00
45255;BME280;30989;52.078;21.014;2023-01-25T10:50:42;163522.16;;;-0.87;100.00
45255;BME280;30989;52.078;21.014;2023-01-25T10:53:31;163510.19;;;-0.91;100.00
45255;BME280;30989;52.078;21.014;2023-01-25T11:01:00;163512.84;;;-0.90;100.00
45255;BME280;30989;52.078;21.014;2023-01-25T11:03:44;163518.16;;;-0.88;100.00
45255;BME280;30989;52.078;21.014;2023-01-25T11:06:09;163527.47;;;-0.85;100.00
45255;BME280;30989;52.078;21.014;2023-01-25T11:08:36;163534.13;;;-0.82;100.00
45255;BME280;30989;52.078;21.014;2023-01-25T11:11:35;163536.78;;;-0.81;100.00
45255;BME280;30989;52.078;21.014;2023-01-25T11:14:14;163524.81;;;-0.86;100.00
45255;BME280;30989;52.078;21.014;2023-01-25T11:16:46;163535.44;;;-0.82;100.00
45255;BME280;30989;52.078;21.014;2023-01-25T11:19:32;163548.72;;;-0.77;100.00
45255;BME280;30989;52.078;21.014;2023-01-25T11:21:59;163546.06;;;-0.78;100.00
45255;BME280;30989;52.078;21.014;2023-01-25T11:24:27;163531.47;;;-0.83;100.00
45255;BME280;30989;52.078;21.014;2023-01-25T11:29:38;163538.09;;;-0.81;100.00
45255;BME280;30989;52.078;21.014;2023-01-25T11:32:15;163543.41;;;-0.79;100.00
45255;BME280;30989;52.078;21.014;2023-01-25T11:34:46;163520.81;;;-0.87;100.00
45255;BME280;30989;52.078;21.014;2023-01-25T11:39:54;163515.50;;;-0.89;100.00
45255;BME280;30989;52.078;21.014;2023-01-25T11:42:34;163523.47;;;-0.86;100.00
45255;BME280;30989;52.078;21.014;2023-01-25T11:45:12;163530.13;;;-0.84;100.00
45255;BME280;30989;52.078;21.014;2023-01-25T11:48:02;163538.09;;;-0.81;100.00
45255;BME280;30989;52.078;21.014;2023-01-25T11:50:51;163526.16;;;-0.85;100.00
45255;BME280;30989;52.078;21.014;2023-01-25T11:53:47;163544.75;;;-0.78;100.00
45255;BME280;30989;52.078;21.014;2023-01-25T11:56:40;163542.09;;;-0.79;100.00
45255;BME280;30989;52.078;21.014;2023-01-25T11:59:37;163563.34;;;-0.71;100.00
45255;BME280;30989;52.078;21.014;2023-01-25T12:02:42;163526.16;;;-0.85;100.00
45255;BME280;30989;52.078;21.014;2023-01-25T12:08:19;163591.25;;;-0.60;100.00
45255;BME280;30989;52.078;21.014;2023-01-25T12:13:26;163589.94;;;-0.61;100.00
45255;BME280;30989;52.078;21.014;2023-01-25T12:16:30;163595.25;;;-0.59;100.00
45255;BME280;30989;52.078;21.014;2023-01-25T12:19:12;163587.28;;;-0.62;100.00
45255;BME280;30989;52.078;21.014;2023-01-25T12:24:36;163583.28;;;-0.63;100.00
45255;BME280;30989;52.078;21.014;2023-01-25T12:30:00;163589.94;;;-0.61;100.00
45255;BME280;30989;52.078;21.014;2023-01-25T12:32:33;163593.91;;;-0.59;100.00
45255;BME280;30989;52.078;21.014;2023-01-25T12:37:43;163609.88;;;-0.53;100.00
45255;BME280;30989;52.078;21.014;2023-01-25T12:40:22;163584.63;;;-0.63;100.00
45255;BME280;30989;52.078;21.014;2023-01-25T12:42:56;163600.56;;;-0.57;100.00
45255;BME280;30989;52.078;21.014;2023-01-25T12:45:43;163568.66;;;-0.69;100.00
45255;BME280;30989;52.078;21.014;2023-01-25T12:48:20;163576.63;;;-0.66;100.00
45255;BME280;30989;52.078;21.014;2023-01-25T12:50:59;163554.03;;;-0.75;100.00
45255;BME280;30989;52.078;21.014;2023-01-25T12:53:35;163547.41;;;-0.77;100.00
45255;BME280;30989;52.078;21.014;2023-01-25T12:56:05;163558.03;;;-0.73;100.00
45255;BME280;30989;52.078;21.014;2023-01-25T12:58:44;163568.66;;;-0.69;100.00
45255;BME280;30989;52.078;21.014;2023-01-25T13:06:30;163588.59;;;-0.61;100.00
45255;BME280;30989;52.078;21.014;2023-01-25T13:09:15;163592.59;;;-0.60;100.00
45255;BME280;30989;52.078;21.014;2023-01-25T13:11:43;163587.28;;;-0.62;100.00
45255;BME280;30989;52.078;21.014;2023-01-25T13:22:00;163573.97;;;-0.67;100.00
45255;BME280;30989;52.078;21.014;2023-01-25T13:24:29;163592.59;;;-0.60;100.00
45255;BME280;30989;52.078;21.014;2023-01-25T13:35:40;163587.28;;;-0.62;100.00
45255;BME280;30989;52.078;21.014;2023-01-25T13:38:25;163589.94;;;-0.61;100.00
45255;BME280;30989;52.078;21.014;2023-01-25T13:41:11;163591.25;;;-0.60;100.00
45255;BME280;30989;52.078;21.014;2023-01-25T13:43:40;163595.25;;;-0.59;100.00
45255;BME280;30989;52.078;21.014;2023-01-25T13:46:09;163571.31;;;-0.68;100.00
45255;BME280;30989;52.078;21.014;2023-01-25T13:48:45;163581.97;;;-0.64;100.00
45255;BME280;30989;52.078;21.014;2023-01-25T13:51:13;163576.63;;;-0.66;100.00
45255;BME280;30989;52.078;21.014;2023-01-25T13:53:41;163559.38;;;-0.73;100.00
45255;BME280;30989;52.078;21.014;2023-01-25T13:56:27;163559.38;;;-0.73;100.00
45255;BME280;30989;52.078;21.014;2023-01-25T13:58:52;163560.69;;;-0.72;100.00
45255;BME280;30989;52.078;21.014;2023-01-25T14:01:19;163566.00;;;-0.70;100.00